createdAt,value
2023-05-12T00:00:49.481Z,101561.42
2023-05-12T00:03:36.546Z,101563.57
2023-05-12T00:06:23.465Z,101563.48
2023-05-12T00:09:10.226Z,101565.54
2023-05-12T00:11:56.761Z,101555.11
2023-05-12T00:14:43.159Z,101558.73
2023-05-12T00:17:29.527Z,101560.42
2023-05-12T00:20:16.024Z,101557.56
2023-05-12T00:23:02.605Z,101560.98
2023-05-12T00:25:49.396Z,101561.02
2023-05-12T00:28:36.021Z,101557.58
2023-05-12T00:31:22.396Z,101560.84
2023-05-12T00:34:08.832Z,101560.98
2023-05-12T00:36:55.470Z,101560.55
2023-05-12T00:39:42.316Z,101564.52
2023-05-12T00:42:28.825Z,101559.89
2023-05-12T00:45:15.487Z,101564.86
2023-05-12T00:48:03.723Z,101564.91
2023-05-12T00:50:50.534Z,101567.43
2023-05-12T00:53:48.559Z,101569.68
2023-05-12T00:56:39.453Z,101573.83
2023-05-12T00:59:29.721Z,101576.43
2023-05-12T01:02:16.446Z,101576.52
2023-05-12T01:05:03.817Z,101578.13
2023-05-12T01:07:50.591Z,101578.23
2023-05-12T01:10:44.074Z,101576.84
2023-05-12T01:13:30.557Z,101579.14
2023-05-12T01:16:21.041Z,101573.02
2023-05-12T01:19:10.820Z,101583.89
2023-05-12T01:21:58.987Z,101585.66
2023-05-12T01:24:50.378Z,101591.38
2023-05-12T01:27:39.794Z,101584.52
2023-05-12T01:30:28.317Z,101592.36
2023-05-12T01:33:14.897Z,101594.48
2023-05-12T01:36:01.845Z,101586.34
2023-05-12T01:38:48.498Z,101598.55
2023-05-12T01:41:34.796Z,101597.90
2023-05-12T01:44:22.069Z,101596.59
2023-05-12T01:47:11.212Z,101601.38
2023-05-12T01:49:58.908Z,101603.17
2023-05-12T01:52:46.291Z,101601.83
2023-05-12T01:55:34.564Z,101604.46
2023-05-12T01:58:21.817Z,101610.68
2023-05-12T02:01:08.635Z,101616.85
2023-05-12T02:03:56.142Z,101614.61
2023-05-12T02:06:42.987Z,101616.21
2023-05-12T02:09:29.500Z,101615.78
2023-05-12T02:12:19.201Z,101613.36
2023-05-12T02:15:06.456Z,101618.06
2023-05-12T02:17:54.575Z,101618.98
2023-05-12T02:20:41.756Z,101616.64
2023-05-12T02:23:28.745Z,101617.71
2023-05-12T02:26:15.063Z,101619.34
2023-05-12T02:29:01.799Z,101618.07
2023-05-12T02:31:48.205Z,101621.35
2023-05-12T02:34:35.678Z,101620.39
2023-05-12T02:37:22.215Z,101620.67
2023-05-12T02:40:09.621Z,101620.54
2023-05-12T02:42:56.050Z,101620.78
2023-05-12T02:45:43.011Z,101620.66
2023-05-12T02:48:29.472Z,101621.23
2023-05-12T02:51:15.833Z,101623.33
2023-05-12T02:54:02.498Z,101626.71
2023-05-12T02:56:48.970Z,101626.48
2023-05-12T02:59:35.467Z,101625.17
2023-05-12T03:02:21.853Z,101626.40
2023-05-12T03:05:09.260Z,101626.25
2023-05-12T03:07:56.116Z,101622.45
2023-05-12T03:10:44.098Z,101630.04
2023-05-12T03:13:30.649Z,101628.49
2023-05-12T03:16:19.748Z,101632.27
2023-05-12T03:19:06.760Z,101628.63
2023-05-12T03:21:53.969Z,101630.20
2023-05-12T03:24:40.442Z,101629.43
2023-05-12T03:27:27.344Z,101632.68
2023-05-12T03:30:14.735Z,101635.05
2023-05-12T03:33:01.788Z,101637.71
2023-05-12T03:35:48.262Z,101632.67
2023-05-12T03:38:34.836Z,101640.16
2023-05-12T03:41:22.192Z,101644.48
2023-05-12T03:44:10.108Z,101645.58
2023-05-12T03:46:56.812Z,101648.62
2023-05-12T03:49:43.348Z,101649.89
2023-05-12T03:52:29.699Z,101653.48
2023-05-12T03:55:16.208Z,101654.16
2023-05-12T03:58:02.791Z,101659.37
2023-05-12T04:00:50.267Z,101663.30
2023-05-12T04:03:36.732Z,101664.50
2023-05-12T04:06:23.736Z,101663.09
2023-05-12T04:09:10.313Z,101667.89
2023-05-12T04:11:56.956Z,101665.57
2023-05-12T04:14:43.938Z,101665.50
2023-05-12T04:17:30.810Z,101666.63
2023-05-12T04:20:17.713Z,101667.85
2023-05-12T04:23:04.206Z,101666.77
2023-05-12T04:25:51.106Z,101662.51
2023-05-12T04:28:37.781Z,101668.67
2023-05-12T04:31:24.655Z,101661.64
2023-05-12T04:34:12.121Z,101665.70
2023-05-12T04:36:58.922Z,101662.91
2023-05-12T04:39:45.557Z,101667.34
2023-05-12T04:42:32.095Z,101667.28
2023-05-12T04:45:19.443Z,101670.09
2023-05-12T04:48:06.700Z,101670.04
2023-05-12T04:50:53.778Z,101671.05
2023-05-12T04:53:40.042Z,101677.68
2023-05-12T04:56:26.358Z,101675.91
2023-05-12T04:59:15.785Z,101676.12
2023-05-12T05:02:02.952Z,101683.53
2023-05-12T05:04:49.565Z,101683.48
2023-05-12T05:07:36.055Z,101683.22
2023-05-12T05:10:22.369Z,101682.73
2023-05-12T05:13:08.855Z,101682.77
2023-05-12T05:15:56.142Z,101684.42
2023-05-12T05:18:47.616Z,101689.09
2023-05-12T05:21:34.687Z,101694.40
2023-05-12T05:24:20.910Z,101693.52
2023-05-12T05:27:07.429Z,101698.30
2023-05-12T05:29:54.387Z,101699.13
2023-05-12T05:32:41.092Z,101698.55
2023-05-12T05:35:27.655Z,101703.91
2023-05-12T05:38:14.712Z,101707.55
2023-05-12T05:41:01.199Z,101711.89
2023-05-12T05:43:47.774Z,101714.02
2023-05-12T05:46:34.012Z,101710.77
2023-05-12T05:49:20.460Z,101715.83
2023-05-12T05:52:07.809Z,101716.60
2023-05-12T05:54:54.311Z,101711.74
2023-05-12T05:57:42.692Z,101715.71
2023-05-12T06:00:29.502Z,101712.85
2023-05-12T06:03:16.173Z,101716.09
2023-05-12T06:06:03.441Z,101717.05
2023-05-12T06:08:50.194Z,101716.41
2023-05-12T06:11:36.514Z,101715.81
2023-05-12T06:14:22.772Z,101719.42
2023-05-12T06:17:09.211Z,101722.04
2023-05-12T06:19:55.729Z,101720.15
2023-05-12T06:22:42.384Z,101717.27
2023-05-12T06:25:29.722Z,101719.19
2023-05-12T06:28:15.995Z,101721.02
2023-05-12T06:31:02.258Z,101730.38
2023-05-12T06:33:49.731Z,101730.46
2023-05-12T06:36:36.021Z,101732.23
2023-05-12T06:39:22.447Z,101727.63
2023-05-12T06:42:09.169Z,101727.35
2023-05-12T06:45:01.719Z,101730.42
2023-05-12T06:47:48.157Z,101728.30
2023-05-12T06:50:34.873Z,101732.48
2023-05-12T06:53:22.828Z,101731.40
2023-05-12T06:56:16.909Z,101733.48
2023-05-12T06:59:04.229Z,101732.21
2023-05-12T07:01:50.898Z,101732.77
2023-05-12T07:04:38.041Z,101733.75
2023-05-12T07:07:24.740Z,101737.42
2023-05-12T07:10:11.264Z,101733.17
2023-05-12T07:12:57.690Z,101729.56
2023-05-12T07:15:44.258Z,101730.36
2023-05-12T07:18:31.989Z,101732.27
2023-05-12T07:21:18.757Z,101737.63
2023-05-12T07:24:06.407Z,101728.27
2023-05-12T07:26:52.851Z,101731.44
2023-05-12T07:29:39.269Z,101733.43
2023-05-12T07:32:25.751Z,101733.81
2023-05-12T07:35:12.559Z,101731.88
2023-05-12T07:37:58.649Z,101731.35
2023-05-12T07:40:45.414Z,101732.91
2023-05-12T07:43:31.936Z,101736.45
2023-05-12T07:46:18.347Z,101736.15
2023-05-12T07:49:05.010Z,101740.23
2023-05-12T07:51:51.857Z,101733.43
2023-05-12T07:54:38.284Z,101733.71
2023-05-12T07:57:24.777Z,101729.21
2023-05-12T08:00:11.651Z,101721.73
2023-05-12T08:03:01.422Z,101729.05
2023-05-12T08:05:48.075Z,101726.64
2023-05-12T08:08:34.967Z,101727.66
2023-05-12T08:11:22.012Z,101726.65
2023-05-12T08:14:08.476Z,101725.39
2023-05-12T08:16:55.081Z,101728.38
2023-05-12T08:19:41.957Z,101729.05
2023-05-12T08:22:28.536Z,101726.27
2023-05-12T08:25:15.396Z,101727.77
2023-05-12T08:28:02.099Z,101719.06
2023-05-12T08:30:48.888Z,101716.00
2023-05-12T08:33:36.341Z,101712.09
2023-05-12T08:36:22.970Z,101708.48
2023-05-12T08:39:12.739Z,101709.33
2023-05-12T08:42:22.194Z,101707.83
2023-05-12T08:45:10.632Z,101706.41
2023-05-12T08:47:58.667Z,101698.10
2023-05-12T08:50:47.303Z,101692.20
2023-05-12T08:53:36.602Z,101702.45
2023-05-12T08:59:13.958Z,101698.31
2023-05-12T09:02:04.540Z,101698.66
2023-05-12T09:04:52.403Z,101700.36
2023-05-12T09:07:43.536Z,101705.21
2023-05-12T09:10:34.636Z,101709.11
2023-05-12T09:13:54.932Z,101699.11
2023-05-12T09:16:43.115Z,101698.09
2023-05-12T09:19:30.350Z,101703.42
2023-05-12T09:22:18.860Z,101695.07
2023-05-12T09:25:19.330Z,101695.92
2023-05-12T09:28:06.274Z,101704.65
2023-05-12T09:30:52.670Z,101697.02
2023-05-12T09:33:39.027Z,101698.04
2023-05-12T09:36:25.891Z,101698.63
2023-05-12T09:39:13.015Z,101689.41
2023-05-12T09:41:59.856Z,101695.87
2023-05-12T09:44:47.217Z,101698.89
2023-05-12T09:47:36.278Z,101690.80
2023-05-12T09:50:23.218Z,101687.81
2023-05-12T09:53:10.020Z,101689.66
2023-05-12T09:55:56.696Z,101691.65
2023-05-12T09:58:48.461Z,101687.45
2023-05-12T10:01:35.909Z,101694.03
2023-05-12T10:04:22.680Z,101696.38
2023-05-12T10:07:13.058Z,101694.48
2023-05-12T10:10:02.432Z,101692.09
2023-05-12T10:12:49.739Z,101688.65
2023-05-12T10:15:36.883Z,101685.44
2023-05-12T10:18:24.838Z,101684.36
2023-05-12T10:21:12.992Z,101690.52
2023-05-12T10:24:00.851Z,101685.08
2023-05-12T10:26:47.587Z,101684.35
2023-05-12T10:29:35.020Z,101682.01
2023-05-12T10:32:21.634Z,101681.91
2023-05-12T10:35:09.378Z,101673.79
2023-05-12T10:37:56.104Z,101675.34
2023-05-12T10:40:58.865Z,101670.55
2023-05-12T10:43:49.571Z,101677.73
2023-05-12T10:46:37.184Z,101683.06
2023-05-12T10:49:33.330Z,101671.35
2023-05-12T10:52:20.210Z,101676.64
2023-05-12T10:55:12.574Z,101667.40
2023-05-12T10:58:13.238Z,101664.46
2023-05-12T11:01:07.411Z,101662.80
2023-05-12T11:03:59.035Z,101664.65
2023-05-12T11:06:46.928Z,101654.19
2023-05-12T11:09:46.814Z,101660.18
2023-05-12T11:12:43.448Z,101658.92
2023-05-12T11:15:30.737Z,101661.81
2023-05-12T11:18:21.790Z,101660.02
2023-05-12T11:21:12.219Z,101663.25
2023-05-12T11:24:00.353Z,101661.46
2023-05-12T11:26:51.766Z,101656.23
2023-05-12T11:29:41.392Z,101659.14
2023-05-12T11:32:29.628Z,101661.90
2023-05-12T11:35:18.147Z,101657.80
2023-05-12T11:38:15.775Z,101657.80
2023-05-12T11:41:02.116Z,101658.91
2023-05-12T11:43:48.446Z,101662.33
2023-05-12T11:46:35.103Z,101661.45
2023-05-12T11:49:21.707Z,101666.17
2023-05-12T11:52:08.157Z,101666.41
2023-05-12T11:55:00.176Z,101659.04
2023-05-12T11:57:56.878Z,101664.89
2023-05-12T12:00:43.295Z,101663.27
2023-05-12T12:03:29.589Z,101662.77
2023-05-12T12:06:17.178Z,101664.05
2023-05-12T12:09:03.633Z,101660.30
2023-05-12T12:11:50.304Z,101664.02
2023-05-12T12:14:38.201Z,101657.36
2023-05-12T12:17:30.782Z,101666.13
2023-05-12T12:20:18.806Z,101664.01
2023-05-12T12:23:05.533Z,101655.04
2023-05-12T12:25:52.096Z,101658.85
2023-05-12T12:28:38.559Z,101654.20
2023-05-12T12:31:24.864Z,101658.30
2023-05-12T12:34:11.517Z,101650.28
2023-05-12T12:36:57.761Z,101644.59
2023-05-12T12:39:44.098Z,101642.89
2023-05-12T12:42:31.068Z,101646.23
2023-05-12T12:45:20.112Z,101651.69
2023-05-12T12:48:09.167Z,101641.39
2023-05-12T12:50:56.063Z,101638.53
2023-05-12T12:53:45.768Z,101636.59
2023-05-12T12:56:32.240Z,101637.95
2023-05-12T12:59:18.695Z,101636.86
2023-05-12T13:02:05.303Z,101624.64
2023-05-12T13:04:52.148Z,101630.39
2023-05-12T13:07:38.197Z,101627.52
2023-05-12T13:10:25.990Z,101632.82
2023-05-12T13:13:12.636Z,101612.53
2023-05-12T13:15:58.984Z,101618.47
2023-05-12T13:18:46.104Z,101624.74
2023-05-12T13:21:32.588Z,101617.08
2023-05-12T13:24:19.020Z,101623.88
2023-05-12T13:27:08.442Z,101621.67
2023-05-12T13:29:55.247Z,101618.21
2023-05-12T13:32:41.810Z,101620.77
2023-05-12T13:35:28.558Z,101613.52
2023-05-12T13:38:15.280Z,101610.16
2023-05-12T13:41:02.250Z,101616.02
2023-05-12T13:43:48.857Z,101615.34
2023-05-12T13:46:35.820Z,101611.82
2023-05-12T13:49:22.352Z,101608.85
2023-05-12T13:52:08.649Z,101610.44
2023-05-12T13:54:55.247Z,101612.52
2023-05-12T13:57:41.604Z,101616.84
2023-05-12T14:00:29.938Z,101616.23
2023-05-12T14:03:16.735Z,101613.83
2023-05-12T14:06:04.035Z,101605.85
2023-05-12T14:08:50.073Z,101604.15
2023-05-12T14:11:37.049Z,101604.14
2023-05-12T14:14:23.747Z,101601.13
2023-05-12T14:17:10.269Z,101597.05
2023-05-12T14:19:56.799Z,101596.39
2023-05-12T14:22:43.128Z,101600.48
2023-05-12T14:25:30.878Z,101603.18
2023-05-12T14:28:17.884Z,101601.84
2023-05-12T14:31:04.290Z,101606.48
2023-05-12T14:33:50.530Z,101598.01
2023-05-12T14:36:36.748Z,101604.56
2023-05-12T14:39:23.010Z,101605.45
2023-05-12T14:42:09.554Z,101597.88
2023-05-12T14:44:56.694Z,101607.48
2023-05-12T14:47:43.289Z,101596.79
2023-05-12T14:50:30.038Z,101598.98
2023-05-12T14:53:16.582Z,101600.84
2023-05-12T14:56:02.724Z,101603.43
2023-05-12T14:58:49.290Z,101608.55
2023-05-12T15:01:35.781Z,101607.63
2023-05-12T15:04:22.477Z,101608.56
2023-05-12T15:07:09.136Z,101611.40
2023-05-12T15:09:55.840Z,101610.64
2023-05-12T15:12:42.366Z,101614.33
2023-05-12T15:15:29.567Z,101605.11
2023-05-12T15:18:16.178Z,101597.44
2023-05-12T15:21:02.523Z,101594.71
2023-05-12T15:23:49.270Z,101600.80
2023-05-12T15:26:39.705Z,101605.27
2023-05-12T15:29:27.216Z,101603.16
2023-05-12T15:32:13.752Z,101600.14
2023-05-12T15:35:00.048Z,101600.20
2023-05-12T15:37:46.668Z,101602.20
2023-05-12T15:40:33.235Z,101601.17
2023-05-12T15:43:19.815Z,101604.55
2023-05-12T15:46:06.645Z,101606.60
2023-05-12T15:48:52.995Z,101608.09
2023-05-12T15:51:39.847Z,101599.66
2023-05-12T15:54:26.636Z,101604.47
2023-05-12T15:57:13.803Z,101602.25
2023-05-12T16:00:00.294Z,101595.61
2023-05-12T16:02:47.103Z,101598.47
2023-05-12T16:05:37.892Z,101597.34
2023-05-12T16:08:24.381Z,101598.98
2023-05-12T16:11:11.122Z,101601.66
2023-05-12T16:13:57.820Z,101597.33
2023-05-12T16:16:48.251Z,101593.66
2023-05-12T16:19:34.910Z,101599.36
2023-05-12T16:22:21.818Z,101597.11
2023-05-12T16:25:08.958Z,101592.80
2023-05-12T16:27:55.883Z,101593.39
2023-05-12T16:30:42.493Z,101601.25
2023-05-12T16:33:29.901Z,101599.63
2023-05-12T16:36:17.626Z,101593.75
2023-05-12T16:39:04.288Z,101596.04
2023-05-12T16:41:50.920Z,101597.13
2023-05-12T16:44:37.288Z,101594.16
2023-05-12T16:47:24.127Z,101594.84
2023-05-12T16:50:11.721Z,101597.15
2023-05-12T16:52:58.356Z,101594.59
2023-05-12T16:55:44.898Z,101585.54
2023-05-12T16:58:31.589Z,101593.73
2023-05-12T17:01:18.353Z,101593.40
2023-05-12T17:04:06.830Z,101590.09
2023-05-12T17:06:53.592Z,101598.86
2023-05-12T17:09:40.278Z,101598.10
2023-05-12T17:12:26.994Z,101597.87
2023-05-12T17:15:13.454Z,101598.87
2023-05-12T17:18:00.123Z,101600.31
2023-05-12T17:20:46.438Z,101601.11
2023-05-12T17:23:32.908Z,101597.65
2023-05-12T17:26:19.294Z,101601.46
2023-05-12T17:29:05.584Z,101605.80
2023-05-12T17:31:51.962Z,101605.16
2023-05-12T17:34:38.566Z,101608.34
2023-05-12T17:37:25.463Z,101611.45
2023-05-12T17:40:18.187Z,101610.11
2023-05-12T17:43:04.789Z,101614.61
2023-05-12T17:45:51.591Z,101624.58
2023-05-12T17:48:38.745Z,101622.41
2023-05-12T17:51:25.775Z,101625.70
2023-05-12T17:54:12.508Z,101628.88
2023-05-12T17:56:59.370Z,101630.70
2023-05-12T17:59:45.646Z,101633.92
2023-05-12T18:02:32.202Z,101635.98
2023-05-12T18:05:18.631Z,101641.78
2023-05-12T18:08:06.655Z,101637.81
2023-05-12T18:10:52.942Z,101642.08
2023-05-12T18:13:39.458Z,101640.75
2023-05-12T18:16:29.365Z,101647.54
2023-05-12T18:19:16.315Z,101640.80
2023-05-12T18:22:02.818Z,101657.02
2023-05-12T18:24:50.896Z,101661.11
2023-05-12T18:27:37.450Z,101668.15
2023-05-12T18:30:23.772Z,101667.70
2023-05-12T18:33:10.522Z,101670.46
2023-05-12T18:35:57.147Z,101679.84
2023-05-12T18:38:44.364Z,101680.32
2023-05-12T18:41:31.487Z,101682.27
2023-05-12T18:44:17.758Z,101683.33
2023-05-12T18:47:04.564Z,101687.58
2023-05-12T18:49:51.349Z,101691.96
2023-05-12T18:52:37.985Z,101692.81
2023-05-12T18:55:24.637Z,101696.73
2023-05-12T18:58:11.327Z,101700.48
2023-05-12T19:00:57.510Z,101695.29
2023-05-12T19:03:44.132Z,101692.83
2023-05-12T19:06:31.181Z,101709.89
2023-05-12T19:09:17.511Z,101706.20
2023-05-12T19:12:06.136Z,101702.33
2023-05-12T19:14:52.626Z,101701.74
2023-05-12T19:17:39.101Z,101709.11
2023-05-12T19:20:25.838Z,101715.90
2023-05-12T19:23:12.198Z,101714.50
2023-05-12T19:25:59.187Z,101722.52
2023-05-12T19:28:45.739Z,101715.39
2023-05-12T19:31:34.202Z,101728.87
2023-05-12T19:34:21.585Z,101734.92
2023-05-12T19:37:08.583Z,101734.96
2023-05-12T19:39:54.957Z,101735.54
2023-05-12T19:42:42.497Z,101734.59
2023-05-12T19:45:29.220Z,101739.33
2023-05-12T19:48:15.795Z,101743.72
2023-05-12T19:51:02.185Z,101742.71
2023-05-12T19:53:48.315Z,101745.96
2023-05-12T19:56:34.929Z,101744.96
2023-05-12T19:59:21.244Z,101744.48
2023-05-12T20:02:11.049Z,101748.36
2023-05-12T20:05:01.527Z,101744.05
2023-05-12T20:07:48.697Z,101745.39
2023-05-12T20:10:35.334Z,101746.69
2023-05-12T20:13:21.687Z,101753.27
2023-05-12T20:16:08.056Z,101745.95
2023-05-12T20:18:54.871Z,101750.14
2023-05-12T20:21:41.680Z,101747.77
2023-05-12T20:24:28.456Z,101748.36
2023-05-12T20:27:15.074Z,101744.56
2023-05-12T20:30:01.691Z,101754.79
2023-05-12T20:32:50.612Z,101752.23
2023-05-12T20:35:37.100Z,101753.09
2023-05-12T20:38:24.397Z,101759.14
2023-05-12T20:41:10.727Z,101765.59
2023-05-12T20:43:57.117Z,101766.97
2023-05-12T20:46:43.608Z,101766.92
2023-05-12T20:49:30.385Z,101773.70
2023-05-12T20:52:16.652Z,101774.16
2023-05-12T20:55:03.558Z,101780.86
2023-05-12T20:57:50.068Z,101779.18
2023-05-12T21:00:37.225Z,101779.13
2023-05-12T21:03:24.381Z,101777.33
2023-05-12T21:06:12.301Z,101780.65
2023-05-12T21:08:58.743Z,101781.91
2023-05-12T21:11:45.463Z,101774.87
2023-05-12T21:14:44.174Z,101775.58
2023-05-12T21:17:30.344Z,101777.06
2023-05-12T21:20:16.884Z,101778.16
2023-05-12T21:23:03.438Z,101781.52
2023-05-12T21:25:53.188Z,101780.64
2023-05-12T21:28:39.658Z,101782.55
2023-05-12T21:31:26.395Z,101788.96
2023-05-12T21:34:12.579Z,101791.70
2023-05-12T21:37:00.067Z,101794.92
2023-05-12T21:39:46.365Z,101794.98
2023-05-12T21:42:32.818Z,101797.59
2023-05-12T21:45:21.481Z,101792.55
2023-05-12T21:48:08.587Z,101796.11
2023-05-12T21:51:09.166Z,101797.58
2023-05-12T21:53:56.127Z,101793.29
2023-05-12T21:56:45.053Z,101800.43
2023-05-12T21:59:33.111Z,101801.34
2023-05-12T22:02:26.884Z,101802.33
2023-05-12T22:05:14.653Z,101804.55
2023-05-12T22:08:00.870Z,101805.23
2023-05-12T22:10:49.887Z,101804.55
2023-05-12T22:13:37.478Z,101809.50
2023-05-12T22:16:31.149Z,101804.86
2023-05-12T22:19:25.206Z,101803.73
2023-05-12T22:22:12.727Z,101799.09
2023-05-12T22:24:59.707Z,101800.54
2023-05-12T22:27:46.277Z,101792.50
2023-05-12T22:30:33.193Z,101800.66
2023-05-12T22:33:19.590Z,101807.55
2023-05-12T22:36:07.918Z,101804.41
2023-05-12T22:38:55.386Z,101809.80
2023-05-12T22:41:44.637Z,101811.69
2023-05-12T22:44:31.377Z,101813.36
2023-05-12T22:47:17.997Z,101821.88
2023-05-12T22:50:06.779Z,101819.84
2023-05-12T22:52:57.475Z,101818.14
2023-05-12T22:55:47.254Z,101822.98
2023-05-12T22:58:33.704Z,101818.90
2023-05-12T23:01:19.989Z,101821.36
2023-05-12T23:04:06.799Z,101826.00
2023-05-12T23:06:53.147Z,101822.08
2023-05-12T23:09:39.570Z,101824.56
2023-05-12T23:12:25.976Z,101820.73
2023-05-12T23:15:12.359Z,101816.84
2023-05-12T23:17:58.744Z,101814.39
2023-05-12T23:20:45.825Z,101816.27
2023-05-12T23:23:33.239Z,101819.86
2023-05-12T23:26:19.831Z,101823.52
2023-05-12T23:29:06.550Z,101823.27
2023-05-12T23:31:52.776Z,101821.17
2023-05-12T23:34:40.620Z,101824.80
2023-05-12T23:37:27.092Z,101823.73
2023-05-12T23:40:13.281Z,101822.36
2023-05-12T23:42:59.904Z,101823.95
2023-05-12T23:45:46.625Z,101826.56
2023-05-12T23:48:33.249Z,101823.02
2023-05-12T23:51:19.934Z,101827.73
2023-05-12T23:54:06.573Z,101825.97
2023-05-12T23:56:52.748Z,101828.73
2023-05-12T23:59:39.318Z,101829.23
